Time;durP1;ratioP1;P1;durP2;ratioP2;P2;SDS_P1;SDS_P2;PMS_P1;PMS_P2;Temp;Humidity;BMP_temperature;BMP_pressure;BME280_temperature;BME280_humidity;BME280_pressure;Samples;Min_cycle;Max_cycle;Signal;HPM_P1;HPM_P2
2023/01/10 00:02:13;;;;;;;;;;;6.60;99.90;;;;;;5089274;28;19967;-61
2023/01/10 00:04:40;;;;;;;;;;;6.60;99.90;;;;;;5088454;28;19928;-61
2023/01/10 00:07:08;;;;;;;;;;;6.60;99.90;;;;;;5088529;28;20020;-61
2023/01/10 00:09:36;;;;;;;;;;;6.60;99.90;;;;;;5108888;28;19934;-61
2023/01/10 00:14:51;;;;;;;;;;;6.40;99.90;;;;;;5102899;28;19935;-62
2023/01/10 00:17:19;;;;;;;;;;;6.60;99.90;;;;;;5105823;28;19967;-62
2023/01/10 00:19:47;;;;;;;;;;;6.70;99.90;;;;;;5104266;28;20353;-61
2023/01/10 00:22:23;;;;;;;;;;;6.70;99.90;;;;;;5100855;28;20293;-61
2023/01/10 00:24:51;;;;;;;;;;;6.70;99.90;;;;;;5101142;28;19924;-61
2023/01/10 00:27:22;;;;;;;;;;;6.70;99.90;;;;;;5100067;28;20300;-62
2023/01/10 00:29:52;;;;;;;;;;;6.90;99.90;;;;;;5102577;28;20019;-61
2023/01/10 00:32:20;;;;;;;;;;;6.80;99.90;;;;;;5100610;28;19930;-62
2023/01/10 00:34:48;;;;;;;;;;;6.80;99.90;;;;;;5101130;28;19938;-62
2023/01/10 00:37:16;;;;;;;;;;;6.60;99.90;;;;;;5102748;28;19942;-61
2023/01/10 00:39:43;;;;;;;;;;;6.80;99.90;;;;;;5101403;28;19924;-61
2023/01/10 00:44:58;;;;;;;;;;;7.00;99.90;;;;;;5106017;28;19963;-61
2023/01/10 00:47:25;;;;;;;;;;;6.90;99.90;;;;;;5104953;28;19987;-61
2023/01/10 00:49:53;;;;;;;;;;;7.00;99.90;;;;;;5099029;28;19931;-61
2023/01/10 00:52:21;;;;;;;;;;;6.90;99.90;;;;;;5101973;28;19923;-61
2023/01/10 00:54:49;;;;;;;;;;;7.00;99.90;;;;;;5103433;28;19924;-61
2023/01/10 00:57:16;;;;;;;;;;;6.90;99.90;;;;;;5105390;28;19931;-62
2023/01/10 00:59:44;;;;;;;;;;;6.90;99.90;;;;;;5098249;28;20023;-61
2023/01/10 01:02:13;;;;;;;;;;;7.00;99.90;;;;;;5101537;28;19930;-61
2023/01/10 01:04:41;;;;;;;;;;;7.10;99.90;;;;;;5101347;28;20012;-61
2023/01/10 01:07:09;;;;;;;;;;;7.20;99.90;;;;;;5101114;28;19924;-61
2023/01/10 01:10:25;;;;;;;;;;;7.30;99.90;;;;;;5100052;28;19971;-61
2023/01/10 01:12:24;;;;;;;;;;;7.30;99.90;;;;;;5104207;28;19928;-62
2023/01/10 01:14:52;;;;;;;;;;;7.30;99.90;;;;;;5105282;28;20007;-62
2023/01/10 01:17:21;;;;;;;;;;;7.20;99.90;;;;;;5105687;28;19924;-62
2023/01/10 01:19:49;;;;;;;;;;;7.10;99.90;;;;;;5105545;28;20001;-61
2023/01/10 01:22:16;;;;;;;;;;;7.20;99.90;;;;;;5105628;28;19934;-61
2023/01/10 01:24:44;;;;;;;;;;;7.10;99.90;;;;;;5105732;28;19934;-61
2023/01/10 01:27:12;;;;;;;;;;;7.00;99.90;;;;;;5100766;28;20281;-61
2023/01/10 01:29:39;;;;;;;;;;;7.00;99.90;;;;;;5108263;28;19930;-60
2023/01/10 01:32:10;;;;;;;;;;;7.00;99.90;;;;;;5104900;28;20470;-61
2023/01/10 01:34:39;;;;;;;;;;;7.00;99.90;;;;;;5103152;28;19928;-60
2023/01/10 01:37:08;;;;;;;;;;;7.00;99.90;;;;;;5105799;28;20391;-61
2023/01/10 01:39:36;;;;;;;;;;;6.90;99.90;;;;;;5107978;28;20019;-61
2023/01/10 01:42:04;;;;;;;;;;;6.90;99.90;;;;;;5104610;28;20002;-61
2023/01/10 01:44:32;;;;;;;;;;;6.80;99.90;;;;;;5111394;28;19931;-61
2023/01/10 01:47:01;;;;;;;;;;;6.80;99.90;;;;;;5110185;28;19950;-61
2023/01/10 01:49:30;;;;;;;;;;;6.70;99.90;;;;;;5110663;28;20040;-60
2023/01/10 01:52:02;;;;;;;;;;;6.60;99.90;;;;;;5108527;28;20289;-61
2023/01/10 01:54:30;;;;;;;;;;;6.70;99.90;;;;;;5108796;28;19930;-61
2023/01/10 01:57:00;;;;;;;;;;;6.60;99.90;;;;;;5095698;28;20449;-61
2023/01/10 01:59:30;;;;;;;;;;;6.60;99.90;;;;;;5101850;28;19928;-60
2023/01/10 02:02:01;;;;;;;;;;;6.60;99.90;;;;;;5109640;28;19923;-61
2023/01/10 02:04:31;;;;;;;;;;;6.40;99.90;;;;;;5106953;28;20070;-62
2023/01/10 02:07:00;;;;;;;;;;;6.50;99.90;;;;;;5107932;28;20305;-61
2023/01/10 02:09:32;;;;;;;;;;;6.60;99.90;;;;;;5108621;28;20286;-61
2023/01/10 02:12:01;;;;;;;;;;;6.40;99.90;;;;;;5106932;28;20016;-61
2023/01/10 02:14:30;;;;;;;;;;;6.40;99.90;;;;;;5108094;28;19928;-61
2023/01/10 02:16:58;;;;;;;;;;;6.40;99.90;;;;;;5110361;28;20321;-61
2023/01/10 02:19:29;;;;;;;;;;;6.50;99.90;;;;;;5109012;28;19927;-61
2023/01/10 02:22:12;;;;;;;;;;;6.50;99.90;;;;;;5110559;28;19927;-62
2023/01/10 02:24:52;;;;;;;;;;;6.40;99.90;;;;;;5088049;28;20300;-61
2023/01/10 02:27:22;;;;;;;;;;;6.30;99.90;;;;;;5109118;28;20010;-62
2023/01/10 02:30:08;;;;;;;;;;;6.40;99.90;;;;;;5105441;28;20340;-62
2023/01/10 02:32:40;;;;;;;;;;;6.50;99.90;;;;;;5107164;28;20018;-62
2023/01/10 02:35:27;;;;;;;;;;;6.60;99.90;;;;;;5108426;28;20313;-62
2023/01/10 02:37:59;;;;;;;;;;;6.70;99.90;;;;;;5102093;28;20361;-63
2023/01/10 02:40:30;;;;;;;;;;;6.60;99.90;;;;;;5098991;28;19923;-62
2023/01/10 02:43:00;;;;;;;;;;;6.70;99.90;;;;;;5095006;28;20015;-63
2023/01/10 02:45:30;;;;;;;;;;;6.80;99.90;;;;;;5101475;28;19932;-62
2023/01/10 02:47:59;;;;;;;;;;;6.80;99.90;;;;;;5108094;28;19930;-62
2023/01/10 02:50:36;;;;;;;;;;;6.80;99.90;;;;;;5107105;28;19935;-62
2023/01/10 02:53:05;;;;;;;;;;;6.50;99.90;;;;;;5108275;28;19923;-62
2023/01/10 02:55:41;;;;;;;;;;;6.50;99.90;;;;;;5105543;28;19930;-62
2023/01/10 02:58:13;;;;;;;;;;;6.60;99.90;;;;;;5108271;28;19950;-62
2023/01/10 03:00:45;;;;;;;;;;;6.60;99.90;;;;;;5108011;28;19924;-62
2023/01/10 03:03:21;;;;;;;;;;;6.60;99.90;;;;;;5105939;28;19923;-62
2023/01/10 03:05:53;;;;;;;;;;;6.60;99.90;;;;;;5109872;28;19930;-62
2023/01/10 03:08:26;;;;;;;;;;;6.70;99.90;;;;;;5102375;28;19923;-61
2023/01/10 03:10:56;;;;;;;;;;;6.80;99.90;;;;;;5097520;28;19963;-62
2023/01/10 03:13:26;;;;;;;;;;;6.70;99.90;;;;;;5108519;28;19930;-62
2023/01/10 03:15:54;;;;;;;;;;;6.70;99.90;;;;;;5109021;28;19923;-62
2023/01/10 03:18:25;;;;;;;;;;;6.40;99.90;;;;;;5104825;28;19928;-61
2023/01/10 03:20:52;;;;;;;;;;;6.30;99.90;;;;;;5103489;28;20311;-62
2023/01/10 03:23:22;;;;;;;;;;;6.20;99.90;;;;;;5106753;28;19930;-61
2023/01/10 03:25:50;;;;;;;;;;;6.30;99.90;;;;;;5103963;28;19928;-62
2023/01/10 03:28:20;;;;;;;;;;;6.00;99.90;;;;;;5099379;28;19924;-62
2023/01/10 03:30:49;;;;;;;;;;;5.50;99.90;;;;;;5108049;28;19934;-62
2023/01/10 03:33:18;;;;;;;;;;;5.30;99.90;;;;;;5107586;28;19959;-62
2023/01/10 03:35:52;;;;;;;;;;;5.20;99.90;;;;;;5101723;28;20277;-62
2023/01/10 03:38:24;;;;;;;;;;;5.40;99.90;;;;;;5107597;28;19989;-62
2023/01/10 03:40:55;;;;;;;;;;;5.20;99.90;;;;;;5106915;28;20393;-63
2023/01/10 03:46:13;;;;;;;;;;;5.10;99.90;;;;;;5106958;28;19934;-62
2023/01/10 03:48:41;;;;;;;;;;;4.90;99.90;;;;;;5110276;28;19923;-62
2023/01/10 03:51:11;;;;;;;;;;;4.90;99.90;;;;;;5107179;28;20406;-62
2023/01/10 03:53:39;;;;;;;;;;;4.90;99.90;;;;;;5110044;28;20124;-61
2023/01/10 03:56:07;;;;;;;;;;;4.90;99.90;;;;;;5099925;28;20423;-61
2023/01/10 03:58:35;;;;;;;;;;;5.00;99.90;;;;;;5098328;28;19967;-61
2023/01/10 04:01:02;;;;;;;;;;;5.20;99.90;;;;;;5100000;28;19924;-61
2023/01/10 04:03:30;;;;;;;;;;;5.50;99.90;;;;;;5106032;28;19932;-61
2023/01/10 04:05:58;;;;;;;;;;;5.70;99.90;;;;;;5108583;28;19924;-62
2023/01/10 04:08:27;;;;;;;;;;;5.70;99.90;;;;;;5110177;28;19932;-62
2023/01/10 04:10:55;;;;;;;;;;;5.80;99.90;;;;;;5107023;28;20014;-62
2023/01/10 04:13:22;;;;;;;;;;;5.80;99.90;;;;;;5105766;28;19923;-62
2023/01/10 04:15:50;;;;;;;;;;;5.90;99.90;;;;;;5106918;28;19924;-62
2023/01/10 04:18:18;;;;;;;;;;;6.10;99.90;;;;;;5108094;28;19975;-62
2023/01/10 04:20:45;;;;;;;;;;;6.20;99.90;;;;;;5107374;28;19943;-61
2023/01/10 04:23:13;;;;;;;;;;;6.20;99.90;;;;;;5104294;28;20534;-62
2023/01/10 04:25:46;;;;;;;;;;;6.40;99.90;;;;;;5102924;28;20055;-62
2023/01/10 04:28:14;;;;;;;;;;;6.40;99.90;;;;;;5102740;28;19924;-61
2023/01/10 04:30:41;;;;;;;;;;;6.50;99.90;;;;;;5100748;28;19931;-62
2023/01/10 04:33:10;;;;;;;;;;;6.50;99.90;;;;;;5102211;28;19924;-62
2023/01/10 04:35:38;;;;;;;;;;;6.50;99.90;;;;;;5101928;28;19975;-62
2023/01/10 04:38:06;;;;;;;;;;;6.60;99.90;;;;;;5110285;28;20397;-62
2023/01/10 04:40:33;;;;;;;;;;;6.40;99.90;;;;;;5109055;28;19932;-63
2023/01/10 04:43:02;;;;;;;;;;;6.30;99.90;;;;;;5111225;28;19965;-62
2023/01/10 04:45:30;;;;;;;;;;;5.90;99.90;;;;;;5105603;28;19930;-62
2023/01/10 04:47:59;;;;;;;;;;;5.80;99.90;;;;;;5109796;28;19928;-61
2023/01/10 04:50:27;;;;;;;;;;;5.80;99.90;;;;;;5104814;28;20019;-63
2023/01/10 04:52:55;;;;;;;;;;;5.70;99.90;;;;;;5109788;28;19928;-62
2023/01/10 04:55:23;;;;;;;;;;;5.60;99.90;;;;;;5105797;28;19924;-62
2023/01/10 04:57:50;;;;;;;;;;;5.50;99.90;;;;;;5097782;28;19932;-62
2023/01/10 05:00:20;;;;;;;;;;;5.40;99.90;;;;;;5097763;28;19924;-62
2023/01/10 05:02:47;;;;;;;;;;;5.50;99.90;;;;;;5104915;28;19924;-62
2023/01/10 05:05:15;;;;;;;;;;;5.70;99.90;;;;;;5107265;28;19928;-62
2023/01/10 05:07:45;;;;;;;;;;;5.80;99.90;;;;;;5106046;28;20058;-61
2023/01/10 05:10:13;;;;;;;;;;;6.00;99.90;;;;;;5106692;28;19923;-62
2023/01/10 05:12:41;;;;;;;;;;;6.00;99.90;;;;;;5101192;28;20027;-62
2023/01/10 05:15:09;;;;;;;;;;;6.10;99.90;;;;;;5104562;28;19927;-62
2023/01/10 05:17:38;;;;;;;;;;;6.40;99.90;;;;;;5107602;28;20001;-62
2023/01/10 05:20:06;;;;;;;;;;;6.50;99.90;;;;;;5109402;28;20419;-62
2023/01/10 05:22:34;;;;;;;;;;;6.60;99.90;;;;;;5108568;28;20024;-62
2023/01/10 05:25:01;;;;;;;;;;;6.60;99.90;;;;;;5106902;28;19962;-61
2023/01/10 05:27:29;;;;;;;;;;;6.80;99.90;;;;;;5101069;28;19974;-62
2023/01/10 05:29:57;;;;;;;;;;;6.70;99.90;;;;;;5113614;28;20019;-61
2023/01/10 05:32:28;;;;;;;;;;;6.50;99.90;;;;;;5111842;28;20334;-61
2023/01/10 05:34:57;;;;;;;;;;;6.50;99.90;;;;;;5109807;28;19977;-62
2023/01/10 05:37:24;;;;;;;;;;;6.40;99.90;;;;;;5110973;28;19927;-62
2023/01/10 05:39:52;;;;;;;;;;;6.30;99.90;;;;;;5108430;28;20084;-62
2023/01/10 05:42:20;;;;;;;;;;;6.30;99.90;;;;;;5111127;28;19935;-62
2023/01/10 05:44:48;;;;;;;;;;;6.40;99.90;;;;;;5112086;28;19923;-61
2023/01/10 05:47:15;;;;;;;;;;;6.50;99.90;;;;;;5104301;28;19923;-62
2023/01/10 05:49:43;;;;;;;;;;;6.70;99.90;;;;;;5107230;28;19930;-61
2023/01/10 05:52:12;;;;;;;;;;;6.90;99.90;;;;;;5106377;28;19928;-61
2023/01/10 05:54:40;;;;;;;;;;;6.90;99.90;;;;;;5096869;28;19935;-62
2023/01/10 05:57:07;;;;;;;;;;;7.00;99.90;;;;;;5115865;28;20471;-61
2023/01/10 05:59:35;;;;;;;;;;;7.10;99.90;;;;;;5115312;28;19928;-61
2023/01/10 06:02:03;;;;;;;;;;;7.20;99.90;;;;;;5112889;28;19966;-62
2023/01/10 06:04:31;;;;;;;;;;;7.10;99.90;;;;;;5113266;28;19924;-62
2023/01/10 06:06:58;;;;;;;;;;;7.00;99.90;;;;;;5115107;28;20022;-62
2023/01/10 06:09:27;;;;;;;;;;;7.00;99.90;;;;;;5116388;28;20402;-62
2023/01/10 06:11:55;;;;;;;;;;;7.00;99.90;;;;;;5115893;28;19924;-61
2023/01/10 06:14:23;;;;;;;;;;;6.80;99.90;;;;;;5228365;22;21397;-65
2023/01/10 06:16:50;;;;;;;;;;;6.80;99.90;;;;;;5070246;28;19933;-65
2023/01/10 06:19:18;;;;;;;;;;;6.90;99.90;;;;;;5067194;28;19933;-65
2023/01/10 06:21:46;;;;;;;;;;;7.00;99.90;;;;;;5071308;28;19924;-66
2023/01/10 06:24:13;;;;;;;;;;;7.10;99.90;;;;;;5070316;28;19931;-66
2023/01/10 06:26:42;;;;;;;;;;;7.20;99.90;;;;;;5062669;28;19932;-65
2023/01/10 06:29:10;;;;;;;;;;;7.20;99.90;;;;;;5068809;28;19925;-66
2023/01/10 06:31:38;;;;;;;;;;;7.20;99.90;;;;;;5068545;28;20297;-65
2023/01/10 06:34:06;;;;;;;;;;;7.30;99.90;;;;;;5070264;28;20396;-65
2023/01/10 06:36:33;;;;;;;;;;;7.30;99.90;;;;;;5064045;28;20294;-66
2023/01/10 06:39:01;;;;;;;;;;;7.40;99.90;;;;;;5071022;28;20414;-66
2023/01/10 06:41:29;;;;;;;;;;;7.30;99.90;;;;;;5068749;28;20049;-65
2023/01/10 06:43:58;;;;;;;;;;;7.20;99.90;;;;;;5066958;28;19940;-65
2023/01/10 06:46:26;;;;;;;;;;;7.10;99.90;;;;;;5068248;28;19939;-67
2023/01/10 06:48:53;;;;;;;;;;;7.00;99.90;;;;;;5068276;28;19925;-65
2023/01/10 06:51:21;;;;;;;;;;;6.90;99.90;;;;;;5061731;28;19924;-65
2023/01/10 06:53:49;;;;;;;;;;;6.90;99.90;;;;;;5061537;28;20378;-66
2023/01/10 06:56:16;;;;;;;;;;;6.90;99.90;;;;;;5069067;28;21505;-66
2023/01/10 06:58:44;;;;;;;;;;;6.90;99.90;;;;;;5068055;28;20435;-65
2023/01/10 07:01:14;;;;;;;;;;;7.00;99.90;;;;;;5066700;28;20015;-65
2023/01/10 07:03:42;;;;;;;;;;;6.90;99.90;;;;;;5067019;28;20427;-65
2023/01/10 07:06:10;;;;;;;;;;;6.90;99.90;;;;;;5064818;28;19925;-65
2023/01/10 07:08:38;;;;;;;;;;;6.80;99.90;;;;;;5065324;28;20417;-67
2023/01/10 07:11:06;;;;;;;;;;;6.80;99.90;;;;;;5057742;28;20448;-67
2023/01/10 07:13:34;;;;;;;;;;;6.60;99.90;;;;;;5072174;28;19968;-67
2023/01/10 07:16:02;;;;;;;;;;;6.20;99.90;;;;;;5090149;28;20007;-66
2023/01/10 07:18:31;;;;;;;;;;;6.00;99.90;;;;;;5093395;28;20381;-67
2023/01/10 07:20:59;;;;;;;;;;;5.70;99.90;;;;;;5092536;28;19924;-67
2023/01/10 07:23:27;;;;;;;;;;;5.60;99.90;;;;;;5084733;28;19930;-67
2023/01/10 07:25:54;;;;;;;;;;;5.40;99.90;;;;;;5091054;28;20392;-66
2023/01/10 07:28:22;;;;;;;;;;;5.20;99.90;;;;;;5074174;28;20373;-67
2023/01/10 07:30:50;;;;;;;;;;;5.10;99.90;;;;;;5091171;28;19934;-65
2023/01/10 07:33:17;;;;;;;;;;;4.80;99.90;;;;;;5092253;28;19924;-67
2023/01/10 07:35:46;;;;;;;;;;;4.80;99.90;;;;;;5074457;28;19924;-67
2023/01/10 07:38:14;;;;;;;;;;;4.70;99.90;;;;;;5072294;28;20469;-67
2023/01/10 07:40:44;;;;;;;;;;;4.50;99.90;;;;;;5072492;28;19935;-67
2023/01/10 07:43:12;;;;;;;;;;;4.40;99.90;;;;;;5084456;28;20010;-67
2023/01/10 07:45:39;;;;;;;;;;;4.30;99.90;;;;;;5092655;28;20484;-67
2023/01/10 07:48:07;;;;;;;;;;;4.20;99.90;;;;;;5092950;28;19924;-67
2023/01/10 07:50:35;;;;;;;;;;;4.20;99.90;;;;;;5092007;28;20352;-67
2023/01/10 07:53:05;;;;;;;;;;;4.10;99.90;;;;;;5084027;28;19967;-67
2023/01/10 07:55:35;;;;;;;;;;;4.10;99.90;;;;;;5092533;28;19928;-67
2023/01/10 07:58:02;;;;;;;;;;;4.20;99.90;;;;;;5091694;28;19931;-67
2023/01/10 08:00:30;;;;;;;;;;;4.20;99.90;;;;;;5092020;28;20240;-67
2023/01/10 08:03:05;;;;;;;;;;;4.20;99.90;;;;;;5092995;28;19924;-67
2023/01/10 08:05:33;;;;;;;;;;;4.30;99.90;;;;;;5092489;28;19924;-67
2023/01/10 08:08:05;;;;;;;;;;;4.40;99.90;;;;;;5092427;28;20007;-67
2023/01/10 08:10:33;;;;;;;;;;;4.50;99.90;;;;;;5091836;28;20022;-67
2023/01/10 08:13:01;;;;;;;;;;;4.50;99.90;;;;;;5092457;28;20022;-67
2023/01/10 08:15:45;;;;;;;;;;;4.60;99.90;;;;;;5092123;28;20003;-67
2023/01/10 08:18:14;;;;;;;;;;;4.60;99.90;;;;;;5091304;28;19924;-67
2023/01/10 08:20:41;;;;;;;;;;;4.60;99.90;;;;;;5087823;28;19977;-67
2023/01/10 08:23:10;;;;;;;;;;;4.60;99.90;;;;;;5080252;28;20497;-67
2023/01/10 08:25:38;;;;;;;;;;;4.60;99.90;;;;;;5071968;28;20008;-68
2023/01/10 08:28:06;;;;;;;;;;;4.70;99.90;;;;;;5071870;28;20340;-67
2023/01/10 08:30:34;;;;;;;;;;;4.80;99.90;;;;;;5071367;28;20014;-67
2023/01/10 08:33:02;;;;;;;;;;;4.90;99.90;;;;;;5072267;28;20460;-67
2023/01/10 08:35:29;;;;;;;;;;;5.00;99.90;;;;;;5072027;28;20019;-67
2023/01/10 08:37:58;;;;;;;;;;;4.90;99.90;;;;;;5071704;28;19925;-67
2023/01/10 08:40:27;;;;;;;;;;;5.00;99.90;;;;;;5071481;28;19986;-67
2023/01/10 08:42:58;;;;;;;;;;;5.10;99.90;;;;;;5072129;28;19958;-67
2023/01/10 08:45:26;;;;;;;;;;;5.20;99.90;;;;;;5071689;28;19967;-67
2023/01/10 08:47:54;;;;;;;;;;;5.30;99.90;;;;;;5071278;28;19932;-67
2023/01/10 08:50:22;;;;;;;;;;;5.50;99.90;;;;;;5078833;28;20562;-67
2023/01/10 08:52:50;;;;;;;;;;;5.70;99.90;;;;;;5083807;28;20018;-67
2023/01/10 08:55:18;;;;;;;;;;;5.90;99.90;;;;;;5074519;28;20410;-67
2023/01/10 08:57:47;;;;;;;;;;;6.10;99.90;;;;;;5091133;28;19927;-67
2023/01/10 09:00:16;;;;;;;;;;;6.20;99.90;;;;;;5091134;28;20384;-67
2023/01/10 09:02:43;;;;;;;;;;;6.50;99.90;;;;;;5090942;28;20307;-67
2023/01/10 09:05:11;;;;;;;;;;;6.40;99.90;;;;;;5091674;28;19970;-67
2023/01/10 09:07:57;;;;;;;;;;;6.20;99.90;;;;;;5091576;28;19935;-67
2023/01/10 09:10:25;;;;;;;;;;;6.10;99.90;;;;;;5090980;28;19931;-67
2023/01/10 09:12:58;;;;;;;;;;;6.00;99.90;;;;;;5079912;28;20011;-67
2023/01/10 09:15:27;;;;;;;;;;;6.00;99.90;;;;;;5071445;28;20026;-67
2023/01/10 09:17:55;;;;;;;;;;;5.90;99.90;;;;;;5071424;28;20023;-67
2023/01/10 09:20:23;;;;;;;;;;;6.00;99.90;;;;;;5077684;28;19924;-67
2023/01/10 09:22:51;;;;;;;;;;;6.00;99.90;;;;;;5079072;28;20023;-67
2023/01/10 09:25:19;;;;;;;;;;;6.20;99.90;;;;;;5085350;28;20014;-67
2023/01/10 09:27:47;;;;;;;;;;;6.30;99.90;;;;;;5091146;28;20023;-68
2023/01/10 09:30:16;;;;;;;;;;;6.40;99.90;;;;;;5090955;28;19924;-67
2023/01/10 09:32:44;;;;;;;;;;;6.40;99.90;;;;;;5091494;28;20019;-67
2023/01/10 09:35:12;;;;;;;;;;;6.40;99.90;;;;;;5091387;28;19956;-67
2023/01/10 09:37:39;;;;;;;;;;;6.40;99.90;;;;;;5080047;28;19929;-67
2023/01/10 09:40:09;;;;;;;;;;;6.40;99.90;;;;;;5070324;28;20023;-67
2023/01/10 09:42:43;;;;;;;;;;;6.40;99.90;;;;;;5071171;28;19964;-67
2023/01/10 09:45:14;;;;;;;;;;;6.30;99.90;;;;;;5071069;28;20365;-67
2023/01/10 09:47:46;;;;;;;;;;;6.40;99.90;;;;;;5071205;28;19931;-67
2023/01/10 09:50:18;;;;;;;;;;;6.40;99.90;;;;;;5074911;28;19924;-67
2023/01/10 09:52:48;;;;;;;;;;;6.40;99.90;;;;;;5076252;28;19936;-67
2023/01/10 09:55:18;;;;;;;;;;;6.50;99.90;;;;;;5087981;28;20014;-67
2023/01/10 09:57:46;;;;;;;;;;;6.60;99.90;;;;;;5080346;28;20044;-66
2023/01/10 10:00:17;;;;;;;;;;;6.70;99.90;;;;;;5086065;28;20011;-66
2023/01/10 10:02:48;;;;;;;;;;;7.10;99.90;;;;;;5094864;28;19924;-66
2023/01/10 10:05:18;;;;;;;;;;;7.50;99.90;;;;;;5094820;28;20464;-67
2023/01/10 10:07:50;;;;;;;;;;;7.80;99.90;;;;;;5094908;28;19930;-67
2023/01/10 10:10:21;;;;;;;;;;;8.00;99.90;;;;;;5094291;28;20011;-67
2023/01/10 10:12:54;;;;;;;;;;;8.20;99.90;;;;;;5082467;28;20393;-67
2023/01/10 10:15:24;;;;;;;;;;;8.40;99.90;;;;;;5074330;28;19936;-67
2023/01/10 10:18:00;;;;;;;;;;;8.70;99.90;;;;;;5074231;28;20489;-67
2023/01/10 10:20:32;;;;;;;;;;;9.10;99.90;;;;;;5074368;28;20027;-67
2023/01/10 10:23:05;;;;;;;;;;;9.60;99.90;;;;;;5082542;28;20415;-66
2023/01/10 10:25:41;;;;;;;;;;;8.90;99.90;;;;;;5074234;28;19924;-67
2023/01/10 10:28:21;;;;;;;;;;;8.40;99.90;;;;;;5091157;28;20411;-67
2023/01/10 10:30:56;;;;;;;;;;;7.90;99.90;;;;;;5093752;28;19930;-67
2023/01/10 10:33:37;;;;;;;;;;;7.70;99.90;;;;;;5094465;28;19924;-66
2023/01/10 10:36:10;;;;;;;;;;;7.60;99.90;;;;;;5093934;28;19924;-66
2023/01/10 10:38:39;;;;;;;;;;;7.50;99.90;;;;;;5094282;28;19925;-67
2023/01/10 10:41:14;;;;;;;;;;;7.30;99.90;;;;;;5091144;28;20030;-67
2023/01/10 10:43:45;;;;;;;;;;;7.30;99.90;;;;;;5074557;28;19929;-66
2023/01/10 10:46:13;;;;;;;;;;;7.20;99.90;;;;;;5073917;28;20367;-68
2023/01/10 10:48:49;;;;;;;;;;;7.20;99.90;;;;;;5073483;28;20018;-68
2023/01/10 10:51:19;;;;;;;;;;;7.10;99.90;;;;;;5073981;28;19924;-68
2023/01/10 10:53:47;;;;;;;;;;;7.10;99.90;;;;;;5080986;28;19925;-67
2023/01/10 10:56:17;;;;;;;;;;;7.10;99.90;;;;;;5074095;28;20035;-67
2023/01/10 10:58:48;;;;;;;;;;;7.10;99.90;;;;;;5073483;28;19982;-67
2023/01/10 11:01:16;;;;;;;;;;;7.00;99.90;;;;;;5073166;28;19982;-68
2023/01/10 11:03:47;;;;;;;;;;;7.00;99.90;;;;;;5073604;28;19924;-68
2023/01/10 11:06:15;;;;;;;;;;;7.10;99.90;;;;;;5073446;28;19962;-67
2023/01/10 11:08:45;;;;;;;;;;;7.00;99.90;;;;;;5073378;28;20027;-68
2023/01/10 11:11:16;;;;;;;;;;;7.10;99.90;;;;;;5078818;28;19934;-68
2023/01/10 11:13:46;;;;;;;;;;;7.10;99.90;;;;;;5093573;28;20181;-67
2023/01/10 11:16:25;;;;;;;;;;;7.10;99.90;;;;;;5093462;28;20101;-68
2023/01/10 11:19:16;;;;;;;;;;;7.10;99.90;;;;;;5093340;28;20014;-68
2023/01/10 11:21:47;;;;;;;;;;;7.10;99.90;;;;;;5083983;28;19978;-67
2023/01/10 11:24:20;;;;;;;;;;;7.10;99.90;;;;;;5076172;28;19929;-68
2023/01/10 11:26:48;;;;;;;;;;;7.10;99.90;;;;;;5073246;28;19931;-67
2023/01/10 11:29:17;;;;;;;;;;;7.10;99.90;;;;;;5072961;28;19924;-68
2023/01/10 11:31:45;;;;;;;;;;;7.10;99.90;;;;;;5072491;28;19963;-67
2023/01/10 11:34:22;;;;;;;;;;;7.10;99.90;;;;;;5072810;28;19931;-67
2023/01/10 11:36:54;;;;;;;;;;;7.10;99.90;;;;;;5072770;28;20371;-68
2023/01/10 11:39:21;;;;;;;;;;;7.10;99.90;;;;;;5072746;28;20027;-68
2023/01/10 11:41:52;;;;;;;;;;;7.20;99.90;;;;;;5072312;28;19947;-67
2023/01/10 11:44:24;;;;;;;;;;;7.20;99.90;;;;;;5072769;28;20453;-67
2023/01/10 11:46:54;;;;;;;;;;;7.10;99.90;;;;;;5072551;28;19959;-68
2023/01/10 11:49:26;;;;;;;;;;;7.10;99.90;;;;;;5072672;28;19924;-68
2023/01/10 11:51:57;;;;;;;;;;;7.20;99.90;;;;;;5078272;28;19924;-68
2023/01/10 11:54:26;;;;;;;;;;;7.20;99.90;;;;;;5074234;28;20362;-67
2023/01/10 11:56:55;;;;;;;;;;;7.10;99.90;;;;;;5072616;28;20452;-68
2023/01/10 11:59:23;;;;;;;;;;;7.20;99.90;;;;;;5072103;28;20027;-68
2023/01/10 12:01:54;;;;;;;;;;;7.30;99.90;;;;;;5071705;28;19924;-68
2023/01/10 12:04:23;;;;;;;;;;;7.30;99.90;;;;;;5072355;28;20368;-68
2023/01/10 12:06:54;;;;;;;;;;;7.40;99.90;;;;;;5072149;28;20437;-68
2023/01/10 12:09:32;;;;;;;;;;;7.40;99.90;;;;;;5072150;28;19963;-68
2023/01/10 12:12:03;;;;;;;;;;;7.50;99.90;;;;;;5090676;28;21293;-68
2023/01/10 12:14:31;;;;;;;;;;;7.80;99.90;;;;;;5113769;22;20154;-64
2023/01/10 12:16:59;;;;;;;;;;;8.10;99.90;;;;;;5092646;28;20034;-63
2023/01/10 12:19:27;;;;;;;;;;;8.30;99.90;;;;;;5092313;28;19924;-63
2023/01/10 12:21:57;;;;;;;;;;;8.30;99.90;;;;;;5091650;28;20321;-64
2023/01/10 12:24:28;;;;;;;;;;;8.10;99.90;;;;;;5091668;28;19924;-64
2023/01/10 12:26:56;;;;;;;;;;;8.00;99.90;;;;;;5092079;28;20010;-64
2023/01/10 12:29:26;;;;;;;;;;;7.90;99.90;;;;;;5091953;28;20484;-64
2023/01/10 12:31:54;;;;;;;;;;;7.80;99.90;;;;;;5091564;28;19925;-64
2023/01/10 12:34:24;;;;;;;;;;;7.80;99.90;;;;;;5091988;28;20022;-64
2023/01/10 12:36:56;;;;;;;;;;;7.70;99.90;;;;;;5091919;28;19970;-63
2023/01/10 12:39:29;;;;;;;;;;;7.50;99.90;;;;;;5091249;28;20022;-65
2023/01/10 12:44:49;;;;;;;;;;;7.40;99.90;;;;;;5091668;28;19947;-63
2023/01/10 12:47:20;;;;;;;;;;;7.40;99.90;;;;;;5091948;28;19924;-64
2023/01/10 12:49:50;;;;;;;;;;;7.40;99.90;;;;;;5090815;28;20064;-64
2023/01/10 12:52:22;;;;;;;;;;;7.30;99.90;;;;;;5091595;28;19931;-64
2023/01/10 12:54:51;;;;;;;;;;;7.30;99.90;;;;;;5091970;28;19928;-63
2023/01/10 12:57:23;;;;;;;;;;;7.30;99.90;;;;;;5090995;28;20015;-63
2023/01/10 12:59:52;;;;;;;;;;;7.30;99.90;;;;;;5090630;28;20414;-63
2023/01/10 13:02:22;;;;;;;;;;;7.30;99.90;;;;;;5091203;28;19924;-63
2023/01/10 13:04:51;;;;;;;;;;;7.30;99.90;;;;;;5091342;28;19924;-65
2023/01/10 13:07:20;;;;;;;;;;;7.40;99.90;;;;;;5091621;28;20019;-64
2023/01/10 13:09:48;;;;;;;;;;;7.30;99.90;;;;;;5091078;28;20312;-63
2023/01/10 13:12:21;;;;;;;;;;;7.30;99.90;;;;;;5091532;28;19930;-64
2023/01/10 13:14:51;;;;;;;;;;;7.20;99.90;;;;;;5090590;28;20407;-64
2023/01/10 13:17:25;;;;;;;;;;;7.20;99.90;;;;;;5091736;28;20018;-64
2023/01/10 13:20:11;;;;;;;;;;;7.30;99.90;;;;;;5090959;28;19928;-63
2023/01/10 13:22:39;;;;;;;;;;;7.30;99.90;;;;;;5082261;28;19928;-64
2023/01/10 13:25:18;;;;;;;;;;;7.20;99.90;;;;;;5091613;28;19924;-63
2023/01/10 13:27:52;;;;;;;;;;;7.20;99.90;;;;;;5091004;28;20436;-64
2023/01/10 13:30:25;;;;;;;;;;;7.20;99.90;;;;;;5090990;28;19928;-63
2023/01/10 13:32:58;;;;;;;;;;;7.20;99.90;;;;;;5091523;28;20019;-63
2023/01/10 13:35:28;;;;;;;;;;;7.20;99.90;;;;;;5092664;28;20502;-64
2023/01/10 13:37:56;;;;;;;;;;;7.20;99.90;;;;;;5095504;28;20354;-65
2023/01/10 13:40:26;;;;;;;;;;;7.10;99.90;;;;;;5094584;28;19934;-64
2023/01/10 13:43:20;;;;;;;;;;;7.10;99.90;;;;;;5095047;28;19924;-63
2023/01/10 13:46:09;;;;;;;;;;;7.00;99.90;;;;;;5051280;28;20031;-63
2023/01/10 13:48:38;;;;;;;;;;;7.00;99.90;;;;;;5074959;28;19951;-64
2023/01/10 13:51:13;;;;;;;;;;;7.00;99.90;;;;;;5082202;28;19924;-63
2023/01/10 13:53:43;;;;;;;;;;;7.00;99.90;;;;;;5086490;28;19932;-63
2023/01/10 13:56:28;;;;;;;;;;;7.00;99.90;;;;;;5094796;28;19930;-64
2023/01/10 14:04:29;;;;;;;;;;;6.90;99.90;;;;;;5094838;28;19930;-64
2023/01/10 14:06:59;;;;;;;;;;;7.00;99.90;;;;;;5094508;28;19924;-64
2023/01/10 14:09:38;;;;;;;;;;;6.90;99.90;;;;;;5094632;28;20315;-63
2023/01/10 14:12:08;;;;;;;;;;;6.90;99.90;;;;;;5094743;28;19924;-64
2023/01/10 14:14:38;;;;;;;;;;;6.90;99.90;;;;;;5094359;28;19924;-64
2023/01/10 14:17:11;;;;;;;;;;;6.90;99.90;;;;;;5094388;28;19969;-63
2023/01/10 14:19:42;;;;;;;;;;;6.90;99.90;;;;;;5094159;28;19957;-63
2023/01/10 14:22:23;;;;;;;;;;;6.90;99.90;;;;;;5094361;28;20289;-64
2023/01/10 14:24:52;;;;;;;;;;;6.80;99.90;;;;;;5094515;28;19931;-64
2023/01/10 14:27:21;;;;;;;;;;;6.80;99.90;;;;;;5093523;28;19924;-64
2023/01/10 14:29:49;;;;;;;;;;;6.80;99.90;;;;;;5093156;28;19934;-64
2023/01/10 14:32:23;;;;;;;;;;;6.80;99.90;;;;;;5094347;28;20353;-64
2023/01/10 14:34:52;;;;;;;;;;;6.80;99.90;;;;;;5094274;28;20362;-64
2023/01/10 14:37:24;;;;;;;;;;;6.80;99.90;;;;;;5093963;28;19930;-64
2023/01/10 14:39:54;;;;;;;;;;;6.80;99.90;;;;;;5093539;28;20022;-64
2023/01/10 14:42:22;;;;;;;;;;;6.80;99.90;;;;;;5094031;28;19924;-63
2023/01/10 14:44:53;;;;;;;;;;;6.80;99.90;;;;;;5093816;28;19924;-63
2023/01/10 14:47:26;;;;;;;;;;;6.70;99.90;;;;;;5093392;28;19947;-64
2023/01/10 14:49:57;;;;;;;;;;;6.80;99.90;;;;;;5093329;28;19977;-63
2023/01/10 14:52:25;;;;;;;;;;;6.80;99.90;;;;;;5093639;28;19975;-63
2023/01/10 14:55:02;;;;;;;;;;;6.70;99.90;;;;;;5092460;28;20373;-63
2023/01/10 14:57:30;;;;;;;;;;;6.80;99.90;;;;;;5086860;28;20420;-63
2023/01/10 15:00:03;;;;;;;;;;;6.70;99.90;;;;;;5093121;28;20351;-64
2023/01/10 15:02:31;;;;;;;;;;;6.70;99.90;;;;;;5093549;28;19930;-63
2023/01/10 15:05:06;;;;;;;;;;;6.70;99.90;;;;;;5093679;28;19924;-63